sensor_id;sensor_type;location;lat;lon;timestamp;P1;durP1;ratioP1;P2;durP2;ratioP2
12196;SDS011;6161;43.014;25.840;2022-11-06T00:00:01;3.90;;;1.53;;
12196;SDS011;6161;43.014;25.840;2022-11-06T00:02:26;3.00;;;2.00;;
12196;SDS011;6161;43.014;25.840;2022-11-06T00:04:51;3.67;;;1.83;;
12196;SDS011;6161;43.014;25.840;2022-11-06T00:07:17;3.03;;;1.83;;
12196;SDS011;6161;43.014;25.840;2022-11-06T00:09:42;2.17;;;1.73;;
12196;SDS011;6161;43.014;25.840;2022-11-06T00:12:08;2.17;;;1.60;;
12196;SDS011;6161;43.014;25.840;2022-11-06T00:14:33;2.00;;;1.83;;
12196;SDS011;6161;43.014;25.840;2022-11-06T00:16:58;4.00;;;1.80;;
12196;SDS011;6161;43.014;25.840;2022-11-06T00:19:24;6.57;;;1.70;;
12196;SDS011;6161;43.014;25.840;2022-11-06T00:21:49;2.10;;;1.57;;
12196;SDS011;6161;43.014;25.840;2022-11-06T00:24:14;2.37;;;1.83;;
12196;SDS011;6161;43.014;25.840;2022-11-06T00:26:40;1.87;;;1.67;;
12196;SDS011;6161;43.014;25.840;2022-11-06T00:29:06;2.53;;;1.63;;
12196;SDS011;6161;43.014;25.840;2022-11-06T00:31:32;3.43;;;1.83;;
12196;SDS011;6161;43.014;25.840;2022-11-06T00:33:59;4.57;;;1.80;;
12196;SDS011;6161;43.014;25.840;2022-11-06T00:36:26;2.80;;;1.80;;
12196;SDS011;6161;43.014;25.840;2022-11-06T00:38:52;1.60;;;1.50;;
12196;SDS011;6161;43.014;25.840;2022-11-06T00:41:19;4.63;;;1.97;;
12196;SDS011;6161;43.014;25.840;2022-11-06T00:43:49;3.80;;;1.73;;
12196;SDS011;6161;43.014;25.840;2022-11-06T00:46:15;2.30;;;2.03;;
12196;SDS011;6161;43.014;25.840;2022-11-06T00:48:42;2.07;;;1.93;;
12196;SDS011;6161;43.014;25.840;2022-11-06T00:51:09;2.00;;;1.77;;
12196;SDS011;6161;43.014;25.840;2022-11-06T00:53:36;2.03;;;1.83;;
12196;SDS011;6161;43.014;25.840;2022-11-06T00:56:06;2.10;;;1.87;;
12196;SDS011;6161;43.014;25.840;2022-11-06T00:58:36;1.80;;;1.70;;
12196;SDS011;6161;43.014;25.840;2022-11-06T01:01:21;3.77;;;1.80;;
12196;SDS011;6161;43.014;25.840;2022-11-06T01:03:57;2.27;;;1.73;;
12196;SDS011;6161;43.014;25.840;2022-11-06T01:06:24;1.90;;;1.80;;
12196;SDS011;6161;43.014;25.840;2022-11-06T01:08:49;2.70;;;1.87;;
12196;SDS011;6161;43.014;25.840;2022-11-06T01:13:47;2.60;;;1.97;;
12196;SDS011;6161;43.014;25.840;2022-11-06T01:16:13;4.97;;;1.80;;
12196;SDS011;6161;43.014;25.840;2022-11-06T01:18:39;4.10;;;2.23;;
12196;SDS011;6161;43.014;25.840;2022-11-06T01:21:08;2.77;;;1.73;;
12196;SDS011;6161;43.014;25.840;2022-11-06T01:23:38;4.97;;;1.67;;
12196;SDS011;6161;43.014;25.840;2022-11-06T01:26:05;3.50;;;1.67;;
12196;SDS011;6161;43.014;25.840;2022-11-06T01:28:30;3.33;;;1.87;;
12196;SDS011;6161;43.014;25.840;2022-11-06T01:31:00;3.87;;;1.77;;
12196;SDS011;6161;43.014;25.840;2022-11-06T01:33:27;3.67;;;1.70;;
12196;SDS011;6161;43.014;25.840;2022-11-06T01:35:52;5.23;;;1.83;;
12196;SDS011;6161;43.014;25.840;2022-11-06T01:38:18;5.70;;;2.30;;
12196;SDS011;6161;43.014;25.840;2022-11-06T01:40:44;2.27;;;2.00;;
12196;SDS011;6161;43.014;25.840;2022-11-06T01:43:21;3.03;;;1.67;;
12196;SDS011;6161;43.014;25.840;2022-11-06T01:45:50;2.33;;;1.90;;
12196;SDS011;6161;43.014;25.840;2022-11-06T01:48:18;5.60;;;2.30;;
12196;SDS011;6161;43.014;25.840;2022-11-06T01:50:45;2.67;;;2.00;;
12196;SDS011;6161;43.014;25.840;2022-11-06T01:53:14;3.13;;;2.17;;
12196;SDS011;6161;43.014;25.840;2022-11-06T01:55:44;2.67;;;1.90;;
12196;SDS011;6161;43.014;25.840;2022-11-06T01:58:11;2.10;;;1.90;;
12196;SDS011;6161;43.014;25.840;2022-11-06T02:00:37;2.40;;;1.93;;
12196;SDS011;6161;43.014;25.840;2022-11-06T02:03:03;4.13;;;1.90;;
12196;SDS011;6161;43.014;25.840;2022-11-06T02:05:28;7.23;;;2.40;;
12196;SDS011;6161;43.014;25.840;2022-11-06T02:07:54;2.30;;;1.80;;
12196;SDS011;6161;43.014;25.840;2022-11-06T02:10:21;2.67;;;2.23;;
12196;SDS011;6161;43.014;25.840;2022-11-06T02:12:52;3.87;;;2.13;;
12196;SDS011;6161;43.014;25.840;2022-11-06T02:23:54;2.47;;;2.00;;
12196;SDS011;6161;43.014;25.840;2022-11-06T02:28:51;6.37;;;2.33;;
12196;SDS011;6161;43.014;25.840;2022-11-06T02:31:25;2.83;;;1.70;;
12196;SDS011;6161;43.014;25.840;2022-11-06T02:33:58;2.37;;;2.03;;
12196;SDS011;6161;43.014;25.840;2022-11-06T02:36:31;4.87;;;2.13;;
12196;SDS011;6161;43.014;25.840;2022-11-06T02:38:59;4.60;;;2.30;;
12196;SDS011;6161;43.014;25.840;2022-11-06T02:41:28;4.17;;;2.23;;
12196;SDS011;6161;43.014;25.840;2022-11-06T02:43:57;3.47;;;2.33;;
12196;SDS011;6161;43.014;25.840;2022-11-06T02:48:55;3.97;;;2.40;;
12196;SDS011;6161;43.014;25.840;2022-11-06T02:51:27;2.20;;;2.00;;
12196;SDS011;6161;43.014;25.840;2022-11-06T02:53:59;2.00;;;1.90;;
12196;SDS011;6161;43.014;25.840;2022-11-06T02:56:31;2.23;;;2.00;;
12196;SDS011;6161;43.014;25.840;2022-11-06T02:59:08;3.40;;;2.20;;
12196;SDS011;6161;43.014;25.840;2022-11-06T03:01:41;3.00;;;2.30;;
12196;SDS011;6161;43.014;25.840;2022-11-06T03:04:12;6.10;;;2.37;;
12196;SDS011;6161;43.014;25.840;2022-11-06T03:06:44;2.67;;;2.00;;
12196;SDS011;6161;43.014;25.840;2022-11-06T03:09:14;4.07;;;2.20;;
12196;SDS011;6161;43.014;25.840;2022-11-06T03:11:42;5.40;;;2.43;;
12196;SDS011;6161;43.014;25.840;2022-11-06T03:19:26;3.37;;;2.37;;
12196;SDS011;6161;43.014;25.840;2022-11-06T03:22:00;2.97;;;2.10;;
12196;SDS011;6161;43.014;25.840;2022-11-06T03:24:28;4.00;;;2.33;;
12196;SDS011;6161;43.014;25.840;2022-11-06T03:26:58;3.70;;;2.23;;
12196;SDS011;6161;43.014;25.840;2022-11-06T03:29:27;3.43;;;2.23;;
12196;SDS011;6161;43.014;25.840;2022-11-06T03:31:59;3.80;;;1.90;;
12196;SDS011;6161;43.014;25.840;2022-11-06T03:34:29;3.60;;;2.40;;
12196;SDS011;6161;43.014;25.840;2022-11-06T03:37:02;5.10;;;2.10;;
12196;SDS011;6161;43.014;25.840;2022-11-06T03:39:35;3.27;;;2.00;;
12196;SDS011;6161;43.014;25.840;2022-11-06T03:42:08;3.17;;;2.27;;
12196;SDS011;6161;43.014;25.840;2022-11-06T03:44:40;4.33;;;2.33;;
12196;SDS011;6161;43.014;25.840;2022-11-06T03:47:16;2.50;;;2.17;;
12196;SDS011;6161;43.014;25.840;2022-11-06T03:49:46;6.00;;;2.80;;
12196;SDS011;6161;43.014;25.840;2022-11-06T03:52:26;2.60;;;1.90;;
12196;SDS011;6161;43.014;25.840;2022-11-06T04:00:05;6.20;;;2.17;;
12196;SDS011;6161;43.014;25.840;2022-11-06T04:02:31;2.30;;;1.80;;
12196;SDS011;6161;43.014;25.840;2022-11-06T04:05:06;3.70;;;2.30;;
12196;SDS011;6161;43.014;25.840;2022-11-06T04:07:42;3.07;;;2.40;;
12196;SDS011;6161;43.014;25.840;2022-11-06T04:10:33;6.20;;;2.30;;
12196;SDS011;6161;43.014;25.840;2022-11-06T04:13:18;2.90;;;2.00;;
12196;SDS011;6161;43.014;25.840;2022-11-06T04:16:03;3.93;;;2.40;;
12196;SDS011;6161;43.014;25.840;2022-11-06T04:18:28;4.93;;;2.33;;
12196;SDS011;6161;43.014;25.840;2022-11-06T04:20:56;3.30;;;2.67;;
12196;SDS011;6161;43.014;25.840;2022-11-06T04:23:47;2.27;;;1.83;;
12196;SDS011;6161;43.014;25.840;2022-11-06T04:26:37;5.40;;;2.00;;
12196;SDS011;6161;43.014;25.840;2022-11-06T04:32:26;2.60;;;2.10;;
12196;SDS011;6161;43.014;25.840;2022-11-06T04:38:11;4.20;;;2.27;;
12196;SDS011;6161;43.014;25.840;2022-11-06T04:46:00;2.40;;;2.00;;
12196;SDS011;6161;43.014;25.840;2022-11-06T04:48:27;4.77;;;2.00;;
12196;SDS011;6161;43.014;25.840;2022-11-06T04:50:55;2.10;;;1.50;;
12196;SDS011;6161;43.014;25.840;2022-11-06T04:53:25;3.47;;;2.40;;
12196;SDS011;6161;43.014;25.840;2022-11-06T04:55:52;3.73;;;2.40;;
12196;SDS011;6161;43.014;25.840;2022-11-06T04:58:17;5.33;;;2.03;;
12196;SDS011;6161;43.014;25.840;2022-11-06T05:00:47;2.37;;;1.90;;
12196;SDS011;6161;43.014;25.840;2022-11-06T05:03:12;2.20;;;1.90;;
12196;SDS011;6161;43.014;25.840;2022-11-06T05:05:39;4.20;;;1.90;;
12196;SDS011;6161;43.014;25.840;2022-11-06T05:08:04;5.17;;;2.40;;
12196;SDS011;6161;43.014;25.840;2022-11-06T05:10:30;4.07;;;2.27;;
12196;SDS011;6161;43.014;25.840;2022-11-06T05:12:55;4.50;;;2.00;;
12196;SDS011;6161;43.014;25.840;2022-11-06T05:15:21;3.47;;;2.10;;
12196;SDS011;6161;43.014;25.840;2022-11-06T05:17:46;5.63;;;2.17;;
12196;SDS011;6161;43.014;25.840;2022-11-06T05:20:12;2.43;;;2.07;;
12196;SDS011;6161;43.014;25.840;2022-11-06T05:22:40;1.93;;;1.80;;
12196;SDS011;6161;43.014;25.840;2022-11-06T05:25:25;2.93;;;2.40;;
12196;SDS011;6161;43.014;25.840;2022-11-06T05:27:53;2.43;;;2.20;;
12196;SDS011;6161;43.014;25.840;2022-11-06T05:30:18;6.03;;;2.37;;
12196;SDS011;6161;43.014;25.840;2022-11-06T05:32:44;2.73;;;1.80;;
12196;SDS011;6161;43.014;25.840;2022-11-06T05:35:09;2.77;;;2.20;;
12196;SDS011;6161;43.014;25.840;2022-11-06T05:37:35;4.37;;;2.23;;
12196;SDS011;6161;43.014;25.840;2022-11-06T05:40:00;2.87;;;2.20;;
12196;SDS011;6161;43.014;25.840;2022-11-06T05:42:25;5.70;;;3.17;;
12196;SDS011;6161;43.014;25.840;2022-11-06T05:44:51;5.73;;;3.80;;
12196;SDS011;6161;43.014;25.840;2022-11-06T05:47:16;3.83;;;3.20;;
12196;SDS011;6161;43.014;25.840;2022-11-06T05:49:42;3.60;;;2.33;;
12196;SDS011;6161;43.014;25.840;2022-11-06T05:52:07;3.37;;;2.00;;
12196;SDS011;6161;43.014;25.840;2022-11-06T05:54:32;2.60;;;2.40;;
12196;SDS011;6161;43.014;25.840;2022-11-06T05:56:58;2.27;;;2.00;;
12196;SDS011;6161;43.014;25.840;2022-11-06T05:59:23;5.63;;;2.50;;
12196;SDS011;6161;43.014;25.840;2022-11-06T06:01:49;4.47;;;2.20;;
12196;SDS011;6161;43.014;25.840;2022-11-06T06:04:14;2.80;;;2.53;;
12196;SDS011;6161;43.014;25.840;2022-11-06T06:06:40;4.37;;;2.37;;
12196;SDS011;6161;43.014;25.840;2022-11-06T06:09:06;3.60;;;2.07;;
12196;SDS011;6161;43.014;25.840;2022-11-06T06:11:32;2.93;;;2.40;;
12196;SDS011;6161;43.014;25.840;2022-11-06T06:13:58;3.53;;;2.40;;
12196;SDS011;6161;43.014;25.840;2022-11-06T06:16:23;2.50;;;2.30;;
12196;SDS011;6161;43.014;25.840;2022-11-06T06:18:49;3.50;;;2.67;;
12196;SDS011;6161;43.014;25.840;2022-11-06T06:21:15;31.50;;;19.57;;
12196;SDS011;6161;43.014;25.840;2022-11-06T06:23:40;3.43;;;2.40;;
12196;SDS011;6161;43.014;25.840;2022-11-06T06:26:05;6.57;;;2.50;;
12196;SDS011;6161;43.014;25.840;2022-11-06T06:28:31;3.10;;;2.00;;
12196;SDS011;6161;43.014;25.840;2022-11-06T06:30:56;3.53;;;2.60;;
12196;SDS011;6161;43.014;25.840;2022-11-06T06:33:22;5.10;;;3.33;;
12196;SDS011;6161;43.014;25.840;2022-11-06T06:35:47;4.50;;;3.00;;
12196;SDS011;6161;43.014;25.840;2022-11-06T06:38:12;3.50;;;3.13;;
12196;SDS011;6161;43.014;25.840;2022-11-06T06:40:38;5.67;;;3.43;;
12196;SDS011;6161;43.014;25.840;2022-11-06T06:43:03;3.63;;;3.23;;
12196;SDS011;6161;43.014;25.840;2022-11-06T06:45:30;4.00;;;3.60;;
12196;SDS011;6161;43.014;25.840;2022-11-06T06:48:00;4.80;;;3.27;;
12196;SDS011;6161;43.014;25.840;2022-11-06T06:50:25;5.13;;;3.53;;
12196;SDS011;6161;43.014;25.840;2022-11-06T06:52:53;9.43;;;3.23;;
12196;SDS011;6161;43.014;25.840;2022-11-06T06:55:19;5.57;;;3.00;;
12196;SDS011;6161;43.014;25.840;2022-11-06T06:57:44;3.73;;;2.53;;
12196;SDS011;6161;43.014;25.840;2022-11-06T07:00:09;4.13;;;2.57;;
12196;SDS011;6161;43.014;25.840;2022-11-06T07:02:35;3.67;;;3.13;;
12196;SDS011;6161;43.014;25.840;2022-11-06T07:05:01;2.90;;;2.63;;
12196;SDS011;6161;43.014;25.840;2022-11-06T07:07:26;9.77;;;5.83;;
12196;SDS011;6161;43.014;25.840;2022-11-06T07:09:53;4.70;;;4.20;;
12196;SDS011;6161;43.014;25.840;2022-11-06T07:12:18;5.60;;;2.60;;
12196;SDS011;6161;43.014;25.840;2022-11-06T07:14:43;3.67;;;2.70;;
12196;SDS011;6161;43.014;25.840;2022-11-06T07:17:09;2.43;;;2.23;;
12196;SDS011;6161;43.014;25.840;2022-11-06T07:19:35;6.97;;;2.87;;
12196;SDS011;6161;43.014;25.840;2022-11-06T07:22:00;3.30;;;2.50;;
12196;SDS011;6161;43.014;25.840;2022-11-06T07:24:25;4.20;;;2.97;;
12196;SDS011;6161;43.014;25.840;2022-11-06T07:26:51;4.13;;;2.63;;
12196;SDS011;6161;43.014;25.840;2022-11-06T07:29:16;3.83;;;3.20;;
12196;SDS011;6161;43.014;25.840;2022-11-06T07:31:41;5.40;;;3.83;;
12196;SDS011;6161;43.014;25.840;2022-11-06T07:34:06;6.17;;;4.23;;
12196;SDS011;6161;43.014;25.840;2022-11-06T07:36:33;6.83;;;4.70;;
12196;SDS011;6161;43.014;25.840;2022-11-06T07:38:59;5.03;;;4.63;;
12196;SDS011;6161;43.014;25.840;2022-11-06T07:41:24;10.30;;;4.20;;
12196;SDS011;6161;43.014;25.840;2022-11-06T07:43:49;5.03;;;3.93;;
12196;SDS011;6161;43.014;25.840;2022-11-06T07:46:15;5.10;;;3.90;;
12196;SDS011;6161;43.014;25.840;2022-11-06T07:48:40;4.73;;;3.83;;
12196;SDS011;6161;43.014;25.840;2022-11-06T07:51:08;7.40;;;3.53;;
12196;SDS011;6161;43.014;25.840;2022-11-06T07:53:34;16.87;;;8.83;;
12196;SDS011;6161;43.014;25.840;2022-11-06T07:56:00;18.07;;;8.20;;
12196;SDS011;6161;43.014;25.840;2022-11-06T07:58:25;27.70;;;11.93;;
12196;SDS011;6161;43.014;25.840;2022-11-06T08:00:52;20.50;;;8.97;;
12196;SDS011;6161;43.014;25.840;2022-11-06T08:03:17;20.90;;;8.67;;
12196;SDS011;6161;43.014;25.840;2022-11-06T08:05:43;16.23;;;7.10;;
12196;SDS011;6161;43.014;25.840;2022-11-06T08:08:09;8.00;;;4.67;;
12196;SDS011;6161;43.014;25.840;2022-11-06T08:10:34;9.13;;;5.20;;
12196;SDS011;6161;43.014;25.840;2022-11-06T08:13:04;8.63;;;5.13;;
12196;SDS011;6161;43.014;25.840;2022-11-06T08:15:29;6.27;;;3.50;;
12196;SDS011;6161;43.014;25.840;2022-11-06T08:17:54;6.17;;;3.43;;
12196;SDS011;6161;43.014;25.840;2022-11-06T08:20:22;6.37;;;3.20;;
12196;SDS011;6161;43.014;25.840;2022-11-06T08:22:47;4.33;;;3.10;;
12196;SDS011;6161;43.014;25.840;2022-11-06T08:25:13;4.20;;;3.07;;
12196;SDS011;6161;43.014;25.840;2022-11-06T08:27:38;6.47;;;3.17;;
12196;SDS011;6161;43.014;25.840;2022-11-06T08:30:04;3.30;;;3.00;;
12196;SDS011;6161;43.014;25.840;2022-11-06T08:32:30;4.17;;;3.07;;
12196;SDS011;6161;43.014;25.840;2022-11-06T08:34:55;4.23;;;3.13;;
12196;SDS011;6161;43.014;25.840;2022-11-06T08:37:20;4.60;;;2.90;;
12196;SDS011;6161;43.014;25.840;2022-11-06T08:39:46;4.73;;;3.13;;
12196;SDS011;6161;43.014;25.840;2022-11-06T08:42:11;4.60;;;3.20;;
12196;SDS011;6161;43.014;25.840;2022-11-06T08:44:36;8.23;;;3.90;;
12196;SDS011;6161;43.014;25.840;2022-11-06T08:47:02;7.43;;;3.53;;
12196;SDS011;6161;43.014;25.840;2022-11-06T08:49:27;7.63;;;3.40;;
12196;SDS011;6161;43.014;25.840;2022-11-06T08:51:53;6.47;;;3.50;;
12196;SDS011;6161;43.014;25.840;2022-11-06T08:54:18;7.87;;;3.40;;
12196;SDS011;6161;43.014;25.840;2022-11-06T08:56:44;3.80;;;2.90;;
12196;SDS011;6161;43.014;25.840;2022-11-06T08:59:09;7.80;;;3.73;;
12196;SDS011;6161;43.014;25.840;2022-11-06T09:01:34;4.70;;;3.83;;
12196;SDS011;6161;43.014;25.840;2022-11-06T09:03:59;6.90;;;3.67;;
12196;SDS011;6161;43.014;25.840;2022-11-06T09:06:25;5.50;;;3.27;;
12196;SDS011;6161;43.014;25.840;2022-11-06T09:08:50;8.40;;;3.30;;
12196;SDS011;6161;43.014;25.840;2022-11-06T09:11:15;7.03;;;3.07;;
12196;SDS011;6161;43.014;25.840;2022-11-06T09:13:41;7.87;;;4.50;;
12196;SDS011;6161;43.014;25.840;2022-11-06T09:16:06;7.83;;;5.43;;
12196;SDS011;6161;43.014;25.840;2022-11-06T09:18:32;5.00;;;3.43;;
12196;SDS011;6161;43.014;25.840;2022-11-06T09:20:57;5.87;;;3.27;;
12196;SDS011;6161;43.014;25.840;2022-11-06T09:23:23;8.70;;;3.57;;
12196;SDS011;6161;43.014;25.840;2022-11-06T09:25:49;9.63;;;5.70;;
12196;SDS011;6161;43.014;25.840;2022-11-06T09:28:14;21.63;;;9.13;;
12196;SDS011;6161;43.014;25.840;2022-11-06T09:30:40;17.03;;;8.03;;
12196;SDS011;6161;43.014;25.840;2022-11-06T09:33:05;17.90;;;8.70;;
12196;SDS011;6161;43.014;25.840;2022-11-06T09:35:31;10.60;;;5.07;;
12196;SDS011;6161;43.014;25.840;2022-11-06T09:38:04;11.20;;;5.03;;
12196;SDS011;6161;43.014;25.840;2022-11-06T09:40:41;5.40;;;4.70;;
12196;SDS011;6161;43.014;25.840;2022-11-06T09:45:54;12.73;;;5.57;;
12196;SDS011;6161;43.014;25.840;2022-11-06T09:48:29;7.90;;;4.80;;
12196;SDS011;6161;43.014;25.840;2022-11-06T09:53:33;9.47;;;5.10;;
12196;SDS011;6161;43.014;25.840;2022-11-06T09:56:00;8.90;;;4.77;;
12196;SDS011;6161;43.014;25.840;2022-11-06T09:58:30;4.97;;;4.40;;
12196;SDS011;6161;43.014;25.840;2022-11-06T10:01:02;9.63;;;4.47;;
12196;SDS011;6161;43.014;25.840;2022-11-06T10:03:42;10.07;;;4.13;;
12196;SDS011;6161;43.014;25.840;2022-11-06T10:06:13;6.33;;;3.43;;
12196;SDS011;6161;43.014;25.840;2022-11-06T10:08:39;6.70;;;3.70;;
12196;SDS011;6161;43.014;25.840;2022-11-06T10:19:10;7.90;;;3.70;;
12196;SDS011;6161;43.014;25.840;2022-11-06T10:21:46;6.63;;;4.00;;
12196;SDS011;6161;43.014;25.840;2022-11-06T10:26:53;5.57;;;4.37;;
12196;SDS011;6161;43.014;25.840;2022-11-06T10:29:26;9.57;;;4.33;;
12196;SDS011;6161;43.014;25.840;2022-11-06T10:34:45;7.60;;;3.93;;
12196;SDS011;6161;43.014;25.840;2022-11-06T10:37:30;10.50;;;4.53;;
12196;SDS011;6161;43.014;25.840;2022-11-06T10:40:00;5.17;;;3.67;;
12196;SDS011;6161;43.014;25.840;2022-11-06T10:42:34;5.50;;;4.07;;
12196;SDS011;6161;43.014;25.840;2022-11-06T10:45:05;5.70;;;4.10;;
12196;SDS011;6161;43.014;25.840;2022-11-06T10:47:38;8.30;;;4.47;;
12196;SDS011;6161;43.014;25.840;2022-11-06T10:50:31;5.10;;;3.90;;
12196;SDS011;6161;43.014;25.840;2022-11-06T10:58:56;5.90;;;3.93;;
12196;SDS011;6161;43.014;25.840;2022-11-06T11:01:21;12.87;;;4.63;;
12196;SDS011;6161;43.014;25.840;2022-11-06T11:03:47;6.80;;;4.17;;
12196;SDS011;6161;43.014;25.840;2022-11-06T11:06:14;8.00;;;4.10;;
12196;SDS011;6161;43.014;25.840;2022-11-06T11:08:41;5.73;;;3.87;;
12196;SDS011;6161;43.014;25.840;2022-11-06T11:13:42;7.07;;;4.60;;
12196;SDS011;6161;43.014;25.840;2022-11-06T11:16:13;6.17;;;4.57;;
12196;SDS011;6161;43.014;25.840;2022-11-06T11:18:39;15.77;;;5.50;;
12196;SDS011;6161;43.014;25.840;2022-11-06T11:23:45;7.27;;;4.40;;
12196;SDS011;6161;43.014;25.840;2022-11-06T11:26:29;5.40;;;4.13;;
12196;SDS011;6161;43.014;25.840;2022-11-06T11:28:57;8.60;;;4.63;;
12196;SDS011;6161;43.014;25.840;2022-11-06T11:31:32;5.47;;;4.17;;
12196;SDS011;6161;43.014;25.840;2022-11-06T11:34:00;7.13;;;4.67;;
12196;SDS011;6161;43.014;25.840;2022-11-06T11:36:28;6.40;;;4.00;;
12196;SDS011;6161;43.014;25.840;2022-11-06T11:39:10;7.67;;;4.60;;
12196;SDS011;6161;43.014;25.840;2022-11-06T11:41:36;11.53;;;4.77;;
12196;SDS011;6161;43.014;25.840;2022-11-06T11:44:05;8.10;;;4.40;;
12196;SDS011;6161;43.014;25.840;2022-11-06T11:46:49;5.93;;;4.33;;
12196;SDS011;6161;43.014;25.840;2022-11-06T11:49:28;4.80;;;3.73;;
12196;SDS011;6161;43.014;25.840;2022-11-06T11:51:54;8.63;;;4.93;;
12196;SDS011;6161;43.014;25.840;2022-11-06T11:54:22;7.60;;;6.57;;
12196;SDS011;6161;43.014;25.840;2022-11-06T11:57:00;7.80;;;4.97;;
12196;SDS011;6161;43.014;25.840;2022-11-06T12:02:25;15.23;;;4.77;;
12196;SDS011;6161;43.014;25.840;2022-11-06T12:04:50;11.27;;;4.33;;
12196;SDS011;6161;43.014;25.840;2022-11-06T12:07:26;7.03;;;5.47;;
12196;SDS011;6161;43.014;25.840;2022-11-06T12:09:55;7.83;;;5.37;;
12196;SDS011;6161;43.014;25.840;2022-11-06T12:15:15;8.63;;;4.80;;
12196;SDS011;6161;43.014;25.840;2022-11-06T12:18:27;8.87;;;4.87;;
12196;SDS011;6161;43.014;25.840;2022-11-06T12:23:15;7.60;;;4.47;;
12196;SDS011;6161;43.014;25.840;2022-11-06T12:28:46;8.10;;;4.40;;
12196;SDS011;6161;43.014;25.840;2022-11-06T12:34:03;9.00;;;4.77;;
12196;SDS011;6161;43.014;25.840;2022-11-06T12:36:31;7.83;;;4.43;;
12196;SDS011;6161;43.014;25.840;2022-11-06T12:39:05;7.73;;;4.43;;
12196;SDS011;6161;43.014;25.840;2022-11-06T12:41:39;5.37;;;4.20;;
12196;SDS011;6161;43.014;25.840;2022-11-06T12:44:10;7.10;;;4.43;;
12196;SDS011;6161;43.014;25.840;2022-11-06T13:00:56;7.23;;;4.20;;
12196;SDS011;6161;43.014;25.840;2022-11-06T13:06:24;5.13;;;4.30;;
12196;SDS011;6161;43.014;25.840;2022-11-06T13:11:24;6.70;;;4.67;;
12196;SDS011;6161;43.014;25.840;2022-11-06T13:17:09;8.37;;;5.10;;
12196;SDS011;6161;43.014;25.840;2022-11-06T13:24:57;10.77;;;5.53;;
12196;SDS011;6161;43.014;25.840;2022-11-06T13:27:41;8.23;;;5.70;;
12196;SDS011;6161;43.014;25.840;2022-11-06T13:30:25;12.60;;;5.73;;
12196;SDS011;6161;43.014;25.840;2022-11-06T13:35:31;11.20;;;5.07;;
12196;SDS011;6161;43.014;25.840;2022-11-06T13:37:57;8.20;;;5.43;;
12196;SDS011;6161;43.014;25.840;2022-11-06T13:45:34;8.23;;;4.93;;
12196;SDS011;6161;43.014;25.840;2022-11-06T13:48:08;6.97;;;4.20;;
12196;SDS011;6161;43.014;25.840;2022-11-06T13:50:48;7.73;;;5.03;;
12196;SDS011;6161;43.014;25.840;2022-11-06T13:53:30;8.53;;;4.53;;
12196;SDS011;6161;43.014;25.840;2022-11-06T14:02:21;7.87;;;4.27;;
12196;SDS011;6161;43.014;25.840;2022-11-06T14:07:13;8.63;;;3.93;;
12196;SDS011;6161;43.014;25.840;2022-11-06T14:09:42;5.27;;;3.73;;
12196;SDS011;6161;43.014;25.840;2022-11-06T14:12:11;11.03;;;4.03;;
12196;SDS011;6161;43.014;25.840;2022-11-06T14:14:44;8.40;;;4.20;;
12196;SDS011;6161;43.014;25.840;2022-11-06T14:19:58;4.47;;;4.00;;
12196;SDS011;6161;43.014;25.840;2022-11-06T14:24:57;8.67;;;3.97;;
12196;SDS011;6161;43.014;25.840;2022-11-06T14:34:45;8.23;;;4.70;;
12196;SDS011;6161;43.014;25.840;2022-11-06T14:44:52;5.40;;;3.80;;
12196;SDS011;6161;43.014;25.840;2022-11-06T14:47:38;4.43;;;3.80;;
12196;SDS011;6161;43.014;25.840;2022-11-06T14:53:02;4.80;;;3.57;;
12196;SDS011;6161;43.014;25.840;2022-11-06T15:16:31;7.13;;;4.43;;
12196;SDS011;6161;43.014;25.840;2022-11-06T15:19:03;8.93;;;4.83;;
12196;SDS011;6161;43.014;25.840;2022-11-06T15:21:29;13.00;;;5.57;;
12196;SDS011;6161;43.014;25.840;2022-11-06T15:24:02;8.83;;;3.97;;
12196;SDS011;6161;43.014;25.840;2022-11-06T15:26:32;7.93;;;4.47;;
12196;SDS011;6161;43.014;25.840;2022-11-06T15:31:42;7.90;;;4.00;;
12196;SDS011;6161;43.014;25.840;2022-11-06T15:34:13;5.00;;;4.10;;
12196;SDS011;6161;43.014;25.840;2022-11-06T15:36:45;6.30;;;3.63;;
12196;SDS011;6161;43.014;25.840;2022-11-06T15:39:59;8.80;;;4.03;;
12196;SDS011;6161;43.014;25.840;2022-11-06T15:42:14;5.50;;;3.40;;
12196;SDS011;6161;43.014;25.840;2022-11-06T15:44:41;4.53;;;3.43;;
12196;SDS011;6161;43.014;25.840;2022-11-06T15:47:20;4.43;;;3.47;;
12196;SDS011;6161;43.014;25.840;2022-11-06T15:49:48;8.93;;;3.50;;
12196;SDS011;6161;43.014;25.840;2022-11-06T15:52:29;5.10;;;3.40;;
12196;SDS011;6161;43.014;25.840;2022-11-06T15:54:55;4.33;;;3.33;;
12196;SDS011;6161;43.014;25.840;2022-11-06T15:57:21;4.30;;;3.30;;
12196;SDS011;6161;43.014;25.840;2022-11-06T15:59:50;11.37;;;3.80;;
12196;SDS011;6161;43.014;25.840;2022-11-06T16:05:16;5.10;;;3.67;;
12196;SDS011;6161;43.014;25.840;2022-11-06T16:07:43;5.77;;;3.80;;
12196;SDS011;6161;43.014;25.840;2022-11-06T16:10:12;4.20;;;3.63;;
12196;SDS011;6161;43.014;25.840;2022-11-06T16:12:38;5.67;;;3.50;;
12196;SDS011;6161;43.014;25.840;2022-11-06T16:15:03;4.83;;;3.57;;
12196;SDS011;6161;43.014;25.840;2022-11-06T16:17:29;5.37;;;3.57;;
12196;SDS011;6161;43.014;25.840;2022-11-06T16:19:55;5.10;;;3.63;;
12196;SDS011;6161;43.014;25.840;2022-11-06T16:22:28;6.13;;;3.63;;
12196;SDS011;6161;43.014;25.840;2022-11-06T16:24:57;6.83;;;3.40;;
12196;SDS011;6161;43.014;25.840;2022-11-06T16:27:23;5.07;;;3.60;;
12196;SDS011;6161;43.014;25.840;2022-11-06T16:29:59;4.77;;;3.40;;
12196;SDS011;6161;43.014;25.840;2022-11-06T16:32:28;6.27;;;3.43;;
12196;SDS011;6161;43.014;25.840;2022-11-06T16:34:56;3.80;;;3.17;;
12196;SDS011;6161;43.014;25.840;2022-11-06T16:39:51;5.10;;;3.53;;
12196;SDS011;6161;43.014;25.840;2022-11-06T16:44:47;4.40;;;3.50;;
12196;SDS011;6161;43.014;25.840;2022-11-06T16:47:16;7.23;;;4.53;;
12196;SDS011;6161;43.014;25.840;2022-11-06T16:55:25;8.07;;;3.87;;
12196;SDS011;6161;43.014;25.840;2022-11-06T16:57:35;5.57;;;4.43;;
12196;SDS011;6161;43.014;25.840;2022-11-06T17:02:33;5.93;;;3.97;;
12196;SDS011;6161;43.014;25.840;2022-11-06T17:05:10;3.93;;;3.20;;
12196;SDS011;6161;43.014;25.840;2022-11-06T17:07:36;3.83;;;3.43;;
12196;SDS011;6161;43.014;25.840;2022-11-06T17:12:59;7.33;;;4.20;;
12196;SDS011;6161;43.014;25.840;2022-11-06T17:15:25;7.77;;;4.73;;
12196;SDS011;6161;43.014;25.840;2022-11-06T17:17:50;6.47;;;4.10;;
12196;SDS011;6161;43.014;25.840;2022-11-06T17:20:16;6.97;;;4.07;;
12196;SDS011;6161;43.014;25.840;2022-11-06T17:22:42;7.53;;;4.27;;
12196;SDS011;6161;43.014;25.840;2022-11-06T17:25:08;8.47;;;3.73;;
12196;SDS011;6161;43.014;25.840;2022-11-06T17:27:33;4.17;;;3.40;;
12196;SDS011;6161;43.014;25.840;2022-11-06T17:29:58;6.03;;;3.47;;
12196;SDS011;6161;43.014;25.840;2022-11-06T17:32:24;4.40;;;3.47;;
12196;SDS011;6161;43.014;25.840;2022-11-06T17:34:49;7.87;;;3.70;;
12196;SDS011;6161;43.014;25.840;2022-11-06T17:37:14;5.07;;;3.50;;
12196;SDS011;6161;43.014;25.840;2022-11-06T17:39:40;6.33;;;3.83;;
12196;SDS011;6161;43.014;25.840;2022-11-06T17:42:05;9.90;;;6.30;;
12196;SDS011;6161;43.014;25.840;2022-11-06T17:44:31;11.37;;;6.87;;
12196;SDS011;6161;43.014;25.840;2022-11-06T17:46:56;7.27;;;4.37;;
12196;SDS011;6161;43.014;25.840;2022-11-06T17:49:22;6.70;;;3.93;;
12196;SDS011;6161;43.014;25.840;2022-11-06T17:51:47;10.30;;;4.90;;
12196;SDS011;6161;43.014;25.840;2022-11-06T17:54:28;9.00;;;4.60;;
12196;SDS011;6161;43.014;25.840;2022-11-06T17:56:56;6.67;;;3.77;;
12196;SDS011;6161;43.014;25.840;2022-11-06T17:59:22;5.73;;;3.97;;
12196;SDS011;6161;43.014;25.840;2022-11-06T18:01:48;5.33;;;4.00;;
12196;SDS011;6161;43.014;25.840;2022-11-06T18:04:17;7.93;;;4.70;;
12196;SDS011;6161;43.014;25.840;2022-11-06T18:06:44;5.20;;;4.70;;